NORTHERN QUEENS  -  Air Quality Alert Air Quality Alert        SOUTHERN QUEENS  -  Air Quality Alert Air Quality Alert      

Active alerts

Northern Queens
  Details for Northern Queens Air Quality Alert
Southern Queens
  Details for Southern Queens Air Quality Alert


WXM80 ListenWXM80 Stop

You find our weather info also at:

UK Metoffice

WeatherCloud

Weather Underground

Northeastern Weather Network

AWEKAS

Citizen Weather Observer Program (CWOP)

HAMweather, WeatherForYou, PWS Weather


Weather Underground History page Text

Daily Summary for November 6, 2017 Units:  Metric    English   Both
« Previous Day
Next Day »
Daily Weekly Monthly Yearly Custom
  High: Low: Average:
Temperature: 18.7 °C 9.6 °C 16.1 °C
Dew Point: 17.4 °C 5.9 °C 14.7 °C
Humidity: 98 % 78 % 92 %
Wind Speed: 18.7 km/h 0 km/h 4.3 km/h
Wind Gust: 29.6 km/h - -
Wind:- - SSW
Pressure: 1019.9 hPa 1010.7 hPa -
Precipitation: 0.76 mm    
Historical Graphs
 
 
Tabular Data for November 6, 2017
Time Temperature Dew Point Pressure Wind Wind Speed Wind Gust Humidity Rainfall Rate (Hourly)
00:02 15.8 °C 15.3 °C 1016.1 hPa SW 1.1 km/h 5.6 km/h 97 % 0 mm
00:07 15.8 °C 15.3 °C 1016.5 hPa WSW 1.9 km/h 5.6 km/h 97 % 0 mm
00:12 15.7 °C 15.2 °C 1016.1 hPa WSW 0.2 km/h 1.6 km/h 97 % 0 mm
00:17 15.7 °C 15.2 °C 1016.5 hPa Calm   1.9 km/h 97 % 0 mm
00:22 15.7 °C 15.2 °C 1015.8 hPa Calm     97 % 0 mm
00:27 15.6 °C 15.1 °C 1016.1 hPa Calm     97 % 0 mm
00:32 15.6 °C 15.1 °C 1016.1 hPa Calm     97 % 0 mm
00:37 15.6 °C 15.1 °C 1016.1 hPa Calm     97 % 0 mm
00:42 15.5 °C 15 °C 1015.8 hPa Calm     97 % 0 mm
00:47 15.4 °C 14.9 °C 1015.1 hPa Calm     97 % 0 mm
00:52 15.4 °C 14.9 °C 1015.5 hPa Calm   1.6 km/h 97 % 0 mm
00:57 15.3 °C 14.8 °C 1015.5 hPa Calm   1.9 km/h 97 % 0 mm
01:02 15.3 °C 14.8 °C 1015.5 hPa Calm   1.9 km/h 97 % 0 mm
01:07 15.2 °C 14.7 °C 1015.5 hPa WSW 0.2 km/h 6.4 km/h 97 % 0 mm
01:12 15.2 °C 14.7 °C 1015.8 hPa SW 3.5 km/h 7.4 km/h 97 % 0 mm
01:17 15.2 °C 14.7 °C 1015.5 hPa West 1.3 km/h 6.4 km/h 97 % 0 mm
01:23 15.2 °C 14.7 °C 1015.5 hPa Calm   1.9 km/h 97 % 0 mm
01:28 15.2 °C 14.7 °C 1015.8 hPa Calm     97 % 0 mm
01:33 15.2 °C 14.7 °C 1015.1 hPa Calm   1.9 km/h 97 % 0 mm
01:38 15.2 °C 14.7 °C 1015.5 hPa Calm     97 % 0 mm
01:43 15.2 °C 14.7 °C 1015.5 hPa Calm   1.9 km/h 97 % 0.25 mm
01:48 15.2 °C 14.7 °C 1015.5 hPa SW 0.2 km/h 1.9 km/h 97 % 0.25 mm
01:53 15.1 °C 14.6 °C 1015.5 hPa Calm   1.6 km/h 97 % 0.25 mm
01:58 15.1 °C 14.6 °C 1015.5 hPa SW 0.2 km/h 1.9 km/h 97 % 0.25 mm
02:03 15.2 °C 14.7 °C 1015.5 hPa SW 0.8 km/h 3.7 km/h 97 % 0.25 mm
02:08 15.2 °C 14.7 °C 1014.8 hPa SW 0.6 km/h 3.7 km/h 97 % 0.25 mm
02:13 15.2 °C 14.7 °C 1014.8 hPa SW 0.2 km/h 1.9 km/h 97 % 0.25 mm
02:18 15.2 °C 14.7 °C 1015.5 hPa SSE 0.8 km/h 3.7 km/h 97 % 0.25 mm
02:23 15.3 °C 15 °C 1015.1 hPa SW 0.5 km/h 3.7 km/h 98 % 0.25 mm
02:28 15.4 °C 15.1 °C 1015.1 hPa SSW 2.6 km/h 9.3 km/h 98 % 0.25 mm
02:33 15.4 °C 15.1 °C 1015.5 hPa SW 2.7 km/h 5.6 km/h 98 % 0.25 mm
02:36 15.5 °C 15.2 °C 1015.1 hPa SE 0.6 km/h 5.6 km/h 98 % 0.25 mm
02:41 15.6 °C 15.2 °C 1015.1 hPa South 1.4 km/h 7.4 km/h 98 % 0.25 mm
02:46 15.6 °C 15.3 °C 1015.5 hPa South 0.2 km/h 3.7 km/h 98 % 0 mm
02:51 15.7 °C 15.3 °C 1015.5 hPa SSW 0.2 km/h 3.7 km/h 98 % 0 mm
02:56 15.7 °C 15.4 °C 1014.8 hPa Calm     98 % 0 mm
03:01 15.7 °C 15.4 °C 1014.8 hPa SSW 2.7 km/h 5.6 km/h 98 % 0 mm
03:06 15.7 °C 15.4 °C 1015.1 hPa SSW 1.1 km/h 3.7 km/h 98 % 0 mm
03:11 15.8 °C 15.4 °C 1014.4 hPa SW 1.9 km/h 9.3 km/h 98 % 0 mm
03:16 15.8 °C 15.5 °C 1014.8 hPa SW 2.6 km/h 5.6 km/h 98 % 0 mm
03:22 15.9 °C 15.6 °C 1014.8 hPa SW 4.2 km/h 14.8 km/h 98 % 0 mm
03:27 15.9 °C 15.6 °C 1014.8 hPa SW 1.4 km/h 6.4 km/h 98 % 0 mm
03:32 16 °C 15.7 °C 1014.4 hPa SE 3.7 km/h 9.3 km/h 98 % 0 mm
03:37 16.1 °C 15.7 °C 1014.8 hPa SSE 0.5 km/h 3.7 km/h 98 % 0 mm
03:42 16.1 °C 15.7 °C 1014.4 hPa Calm   3.7 km/h 98 % 0 mm
03:47 16.1 °C 15.8 °C 1014.1 hPa SW 0.8 km/h 3.7 km/h 98 % 0 mm
03:52 16.2 °C 15.8 °C 1014.4 hPa SW 1.8 km/h 18.5 km/h 98 % 0 mm
03:57 16.2 °C 15.8 °C 1014.1 hPa WSW 2.3 km/h 5.6 km/h 98 % 0 mm
04:02 16.2 °C 15.9 °C 1014.1 hPa West 0.5 km/h 5.6 km/h 98 % 0 mm
04:07 16.3 °C 15.9 °C 1014.1 hPa SW 1.4 km/h 6.4 km/h 98 % 0 mm
04:12 16.3 °C 15.9 °C 1014.4 hPa South 1.9 km/h 3.2 km/h 98 % 0 mm
04:17 16.3 °C 16 °C 1014.4 hPa SSW 2.4 km/h 11.1 km/h 98 % 0 mm
04:22 16.3 °C 16 °C 1014.1 hPa SW 0.8 km/h 4.8 km/h 98 % 0 mm
04:27 16.4 °C 16.1 °C 1014.4 hPa WNW 5.3 km/h 7.4 km/h 98 % 0 mm
04:32 16.4 °C 16.1 °C 1014.1 hPa South 2.1 km/h 5.6 km/h 98 % 0 mm
04:37 16.4 °C 16.1 °C 1014.1 hPa South 0.5 km/h 5.6 km/h 98 % 0 mm
04:42 16.4 °C 16.1 °C 1013.8 hPa SSW 6.4 km/h 6.4 km/h 98 % 0 mm
04:48 16.5 °C 16.2 °C 1014.1 hPa South 5.6 km/h 9.7 km/h 98 % 0 mm
04:53 16.5 °C 16.2 °C 1013.8 hPa SSW 5 km/h 9.3 km/h 98 % 0 mm
04:58 16.5 °C 16.2 °C 1014.1 hPa SW 5.5 km/h 9.3 km/h 98 % 0 mm
05:03 16.6 °C 16.2 °C 1014.1 hPa SW 3.7 km/h 13 km/h 98 % 0 mm
05:08 16.6 °C 16.2 °C 1014.1 hPa South 7.4 km/h 9.3 km/h 98 % 0 mm
05:13 16.6 °C 16.3 °C 1014.1 hPa SSW 5.3 km/h 11.1 km/h 98 % 0 mm
05:18 16.7 °C 16.3 °C 1014.1 hPa South 14.2 km/h 25.9 km/h 98 % 0 mm
05:23 16.7 °C 16.3 °C 1014.1 hPa SSW 9 km/h 18.5 km/h 98 % 0 mm
05:28 16.7 °C 16.3 °C 1013.8 hPa SW 6.3 km/h 11.1 km/h 98 % 0 mm
05:33 16.7 °C 16.4 °C 1013.8 hPa SSW 6.4 km/h 13 km/h 98 % 0 mm
05:38 16.7 °C 16.4 °C 1013.4 hPa South 2.6 km/h 7.4 km/h 98 % 0 mm
05:43 16.8 °C 16.4 °C 1014.1 hPa WSW 9.5 km/h 18.5 km/h 98 % 0 mm
05:48 16.8 °C 16.4 °C 1013.8 hPa WSW 5.3 km/h 14.8 km/h 98 % 0 mm
05:58 16.8 °C 16.5 °C 1013.8 hPa SSW 0.8 km/h 11.1 km/h 98 % 0 mm
06:03 16.8 °C 16.5 °C 1013.8 hPa WSW 5.1 km/h 11.1 km/h 98 % 0 mm
06:08 16.9 °C 16.4 °C 1013.8 hPa South 2.7 km/h 11.1 km/h 97 % 0 mm
06:13 16.9 °C 16.4 °C 1013.4 hPa SSW 3.9 km/h 11.1 km/h 97 % 0 mm
06:18 16.9 °C 16.4 °C 1013.1 hPa SW 3.1 km/h 5.6 km/h 97 % 0 mm
06:23 16.9 °C 16.4 °C 1013.1 hPa SSW 3.9 km/h 11.1 km/h 97 % 0 mm
06:28 16.9 °C 16.4 °C 1013.4 hPa SW 3.1 km/h 7.4 km/h 97 % 0 mm
06:33 16.9 °C 16.4 °C 1013.1 hPa WSW 8.5 km/h 14.8 km/h 97 % 0.25 mm
06:38 16.9 °C 16.4 °C 1013.1 hPa SW 0.5 km/h 9.3 km/h 97 % 0.25 mm
06:43 17 °C 16.5 °C 1013.4 hPa SSW 7.2 km/h 16.7 km/h 97 % 0.25 mm
06:48 17 °C 16.5 °C 1013.4 hPa SSW 2.3 km/h 5.6 km/h 97 % 0.25 mm
06:53 17.1 °C 16.6 °C 1013.4 hPa SSW 2.7 km/h 6.4 km/h 97 % 0.25 mm
06:58 17.1 °C 16.6 °C 1013.4 hPa SW 3.4 km/h 5.6 km/h 97 % 0.25 mm
07:03 17.1 °C 16.6 °C 1013.4 hPa SSW 6.1 km/h 9.7 km/h 97 % 0.25 mm
07:08 17.1 °C 16.6 °C 1013.1 hPa SW 2.7 km/h 5.6 km/h 97 % 0.25 mm
07:13 17.1 °C 16.6 °C 1013.1 hPa SW 0.5 km/h 5.6 km/h 97 % 0.25 mm
07:18 17.1 °C 16.6 °C 1013.1 hPa SW 4.2 km/h 11.3 km/h 97 % 0.25 mm
07:23 17.1 °C 16.6 °C 1013.4 hPa SW 2.7 km/h 7.4 km/h 97 % 0.25 mm
07:28 17.2 °C 16.7 °C 1013.8 hPa SSW 0.5 km/h 4.8 km/h 97 % 0.25 mm
07:33 17.2 °C 16.7 °C 1013.4 hPa SSW 7.4 km/h 11.1 km/h 97 % 0 mm
07:38 17.2 °C 16.7 °C 1013.4 hPa SW 2.9 km/h 5.6 km/h 97 % 0 mm
07:43 17.2 °C 16.6 °C 1013.1 hPa SSW 5.8 km/h 9.7 km/h 96 % 0 mm
07:48 17.2 °C 16.6 °C 1013.4 hPa SSW 3.4 km/h 5.6 km/h 96 % 0 mm
07:53 17.3 °C 16.6 °C 1013.1 hPa SW 1.9 km/h 7.4 km/h 96 % 0 mm
07:58 17.3 °C 16.8 °C 1013.1 hPa South 2.1 km/h 5.6 km/h 97 % 0 mm
08:03 17.3 °C 16.6 °C 1013.1 hPa WNW 3.9 km/h 12.9 km/h 96 % 0 mm
08:08 17.3 °C 16.7 °C 1013.1 hPa SW 3.2 km/h 7.4 km/h 96 % 0 mm
08:13 17.3 °C 16.7 °C 1013.1 hPa SW 3.5 km/h 7.4 km/h 96 % 0 mm
08:18 17.4 °C 16.7 °C 1013.1 hPa WSW 5.5 km/h 11.1 km/h 96 % 0 mm
08:23 17.4 °C 16.8 °C 1013.1 hPa SSW 1.6 km/h 5.6 km/h 96 % 0 mm
08:28 17.4 °C 16.8 °C 1013.1 hPa SW 5.8 km/h 9.7 km/h 96 % 0 mm
08:33 17.4 °C 16.8 °C 1013.1 hPa SW 3.5 km/h 5.6 km/h 96 % 0 mm
08:38 17.5 °C 16.8 °C 1013.1 hPa SSE 2.9 km/h 9.3 km/h 96 % 0 mm
08:43 17.5 °C 16.8 °C 1013.1 hPa SW 6.9 km/h 9.3 km/h 96 % 0 mm
08:48 17.6 °C 16.9 °C 1013.4 hPa SSW 2.9 km/h 7.4 km/h 96 % 0 mm
08:53 17.6 °C 16.9 °C 1013.1 hPa SSW 9.3 km/h 9.3 km/h 96 % 0 mm
08:58 17.6 °C 16.9 °C 1013.4 hPa SSW 5.8 km/h 9.7 km/h 96 % 0 mm
09:03 17.6 °C 16.9 °C 1013.1 hPa West 7.4 km/h 18.5 km/h 96 % 0 mm
09:08 17.6 °C 16.9 °C 1013.1 hPa ENE 3.1 km/h 7.4 km/h 96 % 0 mm
09:13 17.6 °C 16.9 °C 1013.1 hPa SW 6.8 km/h 19.3 km/h 96 % 0 mm
09:18 17.6 °C 16.9 °C 1013.4 hPa SW 3.5 km/h 14.8 km/h 96 % 0 mm
09:23 17.6 °C 16.9 °C 1013.1 hPa WNW 2.3 km/h 7.4 km/h 96 % 0 mm
09:28 17.6 °C 16.9 °C 1013.4 hPa WSW 1.1 km/h 13 km/h 96 % 0 mm
09:33 17.6 °C 16.9 °C 1013.1 hPa WSW 3.5 km/h 9.3 km/h 96 % 0 mm
09:38 17.6 °C 16.9 °C 1013.4 hPa WSW 1.4 km/h 7.4 km/h 96 % 0 mm
09:44 17.6 °C 16.9 °C 1013.4 hPa South 4.8 km/h 9.3 km/h 96 % 0 mm
09:45 17.6 °C 16.9 °C 1013.4 hPa South 1.6 km/h 6.4 km/h 96 % 0 mm
09:50 17.7 °C 17 °C 1013.1 hPa SSW 2.7 km/h 5.6 km/h 96 % 0 mm
09:56 17.6 °C 16.9 °C 1013.1 hPa SW 1.6 km/h 11.3 km/h 96 % 0 mm
10:06 17.6 °C 16.9 °C 1013.1 hPa WSW 0.6 km/h 5.6 km/h 96 % 0 mm
10:11 17.6 °C 16.9 °C 1012.8 hPa WSW 4.5 km/h 16.7 km/h 96 % 0 mm
10:16 17.6 °C 16.9 °C 1013.1 hPa SW 3.4 km/h 5.6 km/h 96 % 0 mm
10:21 17.6 °C 16.9 °C 1013.1 hPa SW 0.3 km/h 5.6 km/h 96 % 0 mm
10:26 17.6 °C 16.9 °C 1013.1 hPa WSW 2.3 km/h 5.6 km/h 96 % 0 mm
10:31 17.6 °C 16.9 °C 1013.1 hPa WSW 6 km/h 11.1 km/h 96 % 0 mm
10:36 17.7 °C 17 °C 1013.4 hPa Calm   3.7 km/h 96 % 0 mm
10:43 17.6 °C 16.9 °C 1013.1 hPa WSW 9 km/h 14.5 km/h 96 % 0 mm
10:48 17.6 °C 16.9 °C 1012.8 hPa SSW 3.2 km/h 6.4 km/h 96 % 0 mm
10:53 17.6 °C 16.9 °C 1012.8 hPa WSW 2.3 km/h 13 km/h 96 % 0 mm
10:58 17.6 °C 16.9 °C 1013.1 hPa SW 4.8 km/h 7.4 km/h 96 % 0 mm
11:03 17.6 °C 16.9 °C 1012.8 hPa SW 1.1 km/h 5.6 km/h 96 % 0 mm
11:08 17.6 °C 16.9 °C 1012.8 hPa WSW 0.3 km/h 3.7 km/h 96 % 0 mm
11:13 17.6 °C 16.9 °C 1012.4 hPa WSW 2.9 km/h 13 km/h 96 % 0 mm
11:18 17.7 °C 17 °C 1012.1 hPa SSW 0.5 km/h 3.7 km/h 96 % 0 mm
11:23 17.7 °C 17 °C 1012.1 hPa SW 3.5 km/h 5.6 km/h 96 % 0 mm
11:28 17.7 °C 17.1 °C 1012.1 hPa SW 3.2 km/h 9.3 km/h 96 % 0 mm
11:33 17.8 °C 17.1 °C 1012.1 hPa SSW 5.8 km/h 8 km/h 96 % 0 mm
11:38 17.8 °C 17.1 °C 1012.4 hPa West 6.3 km/h 9.7 km/h 96 % 0 mm
11:43 17.8 °C 17 °C 1012.4 hPa SW 4.2 km/h 8 km/h 95 % 0 mm
11:48 17.8 °C 17 °C 1012.1 hPa WSW 4.5 km/h 6.4 km/h 95 % 0 mm
11:54 17.9 °C 17.1 °C 1012.1 hPa SW 6.4 km/h 11.1 km/h 95 % 0 mm
11:58 18 °C 17.2 °C 1012.4 hPa WSW 4.8 km/h 11.3 km/h 95 % 0 mm
12:03 18.1 °C 17.1 °C 1012.1 hPa SSW 6.1 km/h 13 km/h 94 % 0 mm
12:08 18.1 °C 17.1 °C 1012.1 hPa WSW 3.7 km/h 8 km/h 94 % 0 mm
12:13 18.2 °C 17.2 °C 1012.1 hPa WSW 1.8 km/h 5.6 km/h 94 % 0 mm
12:18 18.2 °C 17.2 °C 1011.7 hPa WSW 8.7 km/h 18.5 km/h 94 % 0 mm
12:23 18.2 °C 17.1 °C 1012.1 hPa SW 9.2 km/h 14.8 km/h 93 % 0.25 mm
12:28 18.3 °C 17.1 °C 1012.4 hPa South 3.7 km/h 7.4 km/h 93 % 0.25 mm
12:33 18.3 °C 16.9 °C 1012.1 hPa Calm   1.9 km/h 92 % 0.25 mm
12:38 18.3 °C 16.9 °C 1011.7 hPa WSW 0.3 km/h 5.6 km/h 92 % 0.25 mm
12:43 18.3 °C 17 °C 1011.7 hPa WSW 4 km/h 5.6 km/h 92 % 0.25 mm
12:48 18.3 °C 17 °C 1011.4 hPa West 2.9 km/h 5.6 km/h 92 % 0.25 mm
12:53 18.3 °C 17 °C 1012.1 hPa Calm   1.9 km/h 92 % 0.25 mm
12:59 18.4 °C 17.1 °C 1011.4 hPa Calm     92 % 0.25 mm
13:04 18.4 °C 17.3 °C 1011.7 hPa WSW 3.7 km/h 5.6 km/h 93 % 0.25 mm
13:09 18.6 °C 17.4 °C 1011.7 hPa WSW 4.5 km/h 9.3 km/h 93 % 0.25 mm
13:14 18.6 °C 17.3 °C 1011.7 hPa SSW 1.3 km/h 5.6 km/h 92 % 0.25 mm
13:19 18.6 °C 17.1 °C 1012.1 hPa SW 1.3 km/h 8 km/h 91 % 0.25 mm
13:24 18.6 °C 17.1 °C 1012.1 hPa WSW 4.3 km/h 8 km/h 91 % 0 mm
13:29 18.7 °C 17.2 °C 1011.7 hPa West 3.1 km/h 6.4 km/h 91 % 0 mm
13:34 18.7 °C 17 °C 1012.1 hPa SW 3.1 km/h 8 km/h 90 % 0 mm
13:39 18.7 °C 17 °C 1012.1 hPa SW 1.3 km/h 3.7 km/h 90 % 0 mm
13:44 18.7 °C 17 °C 1011.7 hPa WSW 2.6 km/h 6.4 km/h 90 % 0 mm
13:49 18.7 °C 17 °C 1011.7 hPa SW 0.6 km/h 5.6 km/h 90 % 0 mm
13:54 18.7 °C 17 °C 1011.7 hPa Calm     90 % 0 mm
13:59 18.7 °C 17.1 °C 1011.4 hPa WSW 0.3 km/h 5.6 km/h 90 % 0 mm
14:04 18.7 °C 17 °C 1011.4 hPa SW 2.1 km/h 3.7 km/h 90 % 0 mm
14:09 18.7 °C 17 °C 1011.7 hPa SW 2.1 km/h 8 km/h 90 % 0 mm
14:14 18.6 °C 16.8 °C 1012.1 hPa SW 1.6 km/h 5.6 km/h 89 % 0 mm
14:20 18.6 °C 16.7 °C 1012.1 hPa SW 2.7 km/h 4.8 km/h 89 % 0 mm
14:25 18.6 °C 16.7 °C 1012.1 hPa SW 3.9 km/h 5.6 km/h 89 % 0 mm
14:29 18.5 °C 16.7 °C 1011.4 hPa SSW 0.6 km/h 1.9 km/h 89 % 0 mm
14:34 18.5 °C 16.7 °C 1012.1 hPa SSW 1.6 km/h 5.6 km/h 89 % 0 mm
14:39 18.5 °C 16.7 °C 1012.1 hPa WSW 3.5 km/h 5.6 km/h 89 % 0 mm
14:43 18.5 °C 16.8 °C 1012.4 hPa WSW 2.1 km/h 5.6 km/h 90 % 0 mm
14:48 18.4 °C 16.6 °C 1012.4 hPa WSW 1.9 km/h 5.6 km/h 89 % 0 mm
14:53 18.4 °C 16.8 °C 1012.1 hPa WSW 2.6 km/h 6.4 km/h 90 % 0 mm
14:55 18.4 °C 16.6 °C 1012.4 hPa WSW 0.3 km/h 5.6 km/h 89 % 0 mm
15:00 18.4 °C 16.6 °C 1012.1 hPa SW 4.5 km/h 8 km/h 89 % 0 mm
15:05 18.4 °C 16.6 °C 1012.4 hPa SSW 2.4 km/h 5.6 km/h 89 % 0 mm
15:10 18.4 °C 16.6 °C 1012.4 hPa Calm   1.9 km/h 89 % 0 mm
15:15 18.4 °C 16.6 °C 1012.4 hPa Calm   3.7 km/h 89 % 0 mm
15:20 18.4 °C 16.6 °C 1012.8 hPa West 3.5 km/h 5.6 km/h 89 % 0 mm
15:25 18.3 °C 16.5 °C 1012.8 hPa SSW 2.1 km/h 9.7 km/h 89 % 0 mm
15:31 18.3 °C 16.7 °C 1012.4 hPa SW 1.6 km/h 8 km/h 90 % 0 mm
15:36 18.3 °C 16.6 °C 1012.4 hPa SW 3.2 km/h 8 km/h 90 % 0 mm
15:41 18.3 °C 16.6 °C 1012.4 hPa SW 2.9 km/h 5.6 km/h 90 % 0 mm
15:46 18.2 °C 16.6 °C 1011.7 hPa Calm   8 km/h 90 % 0 mm
15:51 18.2 °C 16.5 °C 1011.7 hPa Calm   4.8 km/h 90 % 0 mm
15:56 18.2 °C 16.5 °C 1012.1 hPa WSW 0.2 km/h   90 % 0 mm
16:01 18.1 °C 16.4 °C 1012.1 hPa WSW 1.8 km/h 5.6 km/h 90 % 0 mm
16:06 18.1 °C 16.4 °C 1011.7 hPa Calm   3.7 km/h 90 % 0 mm
16:10 18 °C 16.5 °C 1011.7 hPa Calm   3.7 km/h 91 % 0 mm
16:15 17.9 °C 16.4 °C 1011.7 hPa Calm     91 % 0 mm
16:21 17.9 °C 16.4 °C 1012.1 hPa Calm   1.6 km/h 91 % 0 mm
16:26 17.8 °C 16.3 °C 1012.1 hPa Calm   4.8 km/h 91 % 0 mm
16:31 17.8 °C 16.3 °C 1012.1 hPa WSW 1.6 km/h 6.4 km/h 91 % 0 mm
16:36 17.7 °C 16.2 °C 1012.1 hPa Calm   1.6 km/h 91 % 0 mm
16:41 17.6 °C 16.1 °C 1012.1 hPa SW 3.2 km/h 6.4 km/h 91 % 0 mm
16:46 17.6 °C 16.1 °C 1012.4 hPa SW 1.6 km/h 4.8 km/h 91 % 0 mm
16:51 17.4 °C 15.9 °C 1012.8 hPa SW 3.2 km/h 8 km/h 91 % 0 mm
16:56 17.4 °C 15.9 °C 1012.8 hPa SW 1.6 km/h 8 km/h 91 % 0 mm
17:01 17.3 °C 15.9 °C 1012.8 hPa SSW 0.3 km/h 1.9 km/h 92 % 0 mm
17:06 17.2 °C 15.9 °C 1012.8 hPa WSW 0.6 km/h 5.6 km/h 92 % 0 mm
17:11 17.2 °C 15.9 °C 1012.8 hPa WSW 0.6 km/h 1.9 km/h 92 % 0 mm
17:16 17.2 °C 15.8 °C 1013.1 hPa West 1.9 km/h 5.6 km/h 92 % 0 mm
17:21 17.1 °C 15.8 °C 1013.1 hPa West 1 km/h 5.6 km/h 92 % 0 mm
17:26 17.1 °C 15.9 °C 1013.4 hPa WSW 0.5 km/h 3.7 km/h 93 % 0 mm
17:31 17 °C 15.8 °C 1013.1 hPa West 0.6 km/h 3.7 km/h 93 % 0 mm
17:36 17 °C 15.8 °C 1013.4 hPa WSW 0.3 km/h 1.9 km/h 93 % 0 mm
17:41 16.9 °C 15.8 °C 1013.1 hPa WSW 1.6 km/h 5.6 km/h 93 % 0 mm
17:46 16.9 °C 15.8 °C 1013.4 hPa WSW 3.7 km/h 7.4 km/h 93 % 0 mm
17:51 16.9 °C 15.9 °C 1013.4 hPa WSW 9 km/h 13 km/h 94 % 0 mm
17:56 16.9 °C 15.9 °C 1013.8 hPa West 6.8 km/h 18.5 km/h 94 % 0 mm
18:01 16.8 °C 15.7 °C 1014.1 hPa West 4 km/h 16.7 km/h 93 % 0 mm
18:06 16.8 °C 15.5 °C 1014.1 hPa NW 12.2 km/h 20.4 km/h 92 % 0 mm
18:12 16.8 °C 15.3 °C 1014.1 hPa NW 10.3 km/h 20.4 km/h 91 % 0 mm
18:17 16.8 °C 15.3 °C 1014.4 hPa WNW 10.3 km/h 22.2 km/h 91 % 0 mm
18:22 16.7 °C 15.1 °C 1014.4 hPa NNW 8 km/h 18.5 km/h 90 % 0 mm
18:27 16.7 °C 14.8 °C 1014.8 hPa WNW 4 km/h 14.8 km/h 89 % 0 mm
18:32 16.6 °C 14.8 °C 1014.8 hPa NNE 8.9 km/h 18.5 km/h 89 % 0 mm
18:37 16.6 °C 14.7 °C 1015.1 hPa NNE 5.5 km/h 9.7 km/h 89 % 0 mm
18:42 16.5 °C 14.7 °C 1015.1 hPa NNW 7.2 km/h 11.1 km/h 89 % 0 mm
18:45 16.4 °C 14.6 °C 1015.1 hPa North 6.3 km/h 13 km/h 89 % 0 mm
18:50 16.3 °C 14.1 °C 1015.5 hPa NNE 12.2 km/h 18.5 km/h 87 % 0 mm
18:55 16.1 °C 13.9 °C 1015.5 hPa North 13 km/h 16.1 km/h 87 % 0 mm
19:00 15.9 °C 13.8 °C 1015.8 hPa North 10.9 km/h 18.5 km/h 87 % 0 mm
19:05 15.7 °C 13.5 °C 1015.8 hPa NNE 11.7 km/h 22.5 km/h 87 % 0 mm
19:10 15.4 °C 13.3 °C 1015.8 hPa NE 12.2 km/h 17.7 km/h 87 % 0 mm
19:16 15.3 °C 13.1 °C 1015.8 hPa NNE 9.7 km/h 20.9 km/h 87 % 0 mm
19:21 15.1 °C 13 °C 1016.1 hPa NNE 9.7 km/h 19.3 km/h 87 % 0 mm
19:26 15.1 °C 13.1 °C 1016.1 hPa NNE 8 km/h 14.5 km/h 88 % 0 mm
19:31 14.9 °C 12.9 °C 1016.5 hPa North 9.7 km/h 16.1 km/h 88 % 0 mm
19:36 14.8 °C 12.7 °C 1016.5 hPa NNW 8 km/h 16.1 km/h 87 % 0 mm
19:41 14.7 °C 12.4 °C 1016.5 hPa NNW 3.2 km/h 14.5 km/h 86 % 0 mm
19:46 14.7 °C 12.3 °C 1016.5 hPa North 3.2 km/h 12.9 km/h 86 % 0 mm
19:51 14.6 °C 12.2 °C 1016.5 hPa NNW 8 km/h 14.5 km/h 86 % 0 mm
19:56 14.3 °C 11.7 °C 1016.5 hPa North 12.9 km/h 24.1 km/h 84 % 0 mm
20:01 14.2 °C 11.3 °C 1016.5 hPa NE 6 km/h 18.5 km/h 83 % 0 mm
20:06 14.1 °C 11.4 °C 1016.8 hPa NNE 11.1 km/h 16.1 km/h 84 % 0 mm
20:11 13.9 °C 11.1 °C 1017.2 hPa North 14.2 km/h 24.1 km/h 83 % 0 mm
20:16 13.7 °C 10.7 °C 1017.2 hPa NNE 12.2 km/h 18.5 km/h 82 % 0 mm
20:21 13.5 °C 10.5 °C 1017.5 hPa NNE 10.5 km/h 19.3 km/h 82 % 0 mm
20:26 13.4 °C 10.6 °C 1017.5 hPa North 8 km/h 11.3 km/h 83 % 0 mm
20:31 13.3 °C 10.5 °C 1017.8 hPa NNE 10.1 km/h 20.4 km/h 83 % 0 mm
20:36 13.2 °C 10.2 °C 1017.8 hPa North 11.3 km/h 18.5 km/h 82 % 0 mm
20:41 13.1 °C 9.7 °C 1017.8 hPa North 5.3 km/h 9.3 km/h 80 % 0 mm
20:46 13 °C 9.8 °C 1018.2 hPa NNE 10.8 km/h 22.2 km/h 81 % 0 mm
20:47 13 °C 9.8 °C 1018.2 hPa NNW 10.9 km/h 22.2 km/h 81 % 0 mm
20:52 12.9 °C 9.5 °C 1018.2 hPa NNE 12.4 km/h 18.5 km/h 80 % 0 mm
20:57 12.7 °C 9 °C 1018.2 hPa North 10.8 km/h 18.5 km/h 78 % 0 mm
21:02 12.6 °C 9 °C 1018.5 hPa North 18.7 km/h 29.6 km/h 79 % 0 mm
21:07 12.4 °C 8.7 °C 1018.5 hPa NNE 13.8 km/h 24.1 km/h 78 % 0 mm
21:12 12.3 °C 8.6 °C 1018.5 hPa NNE 14.2 km/h 25.9 km/h 78 % 0 mm
21:17 12.2 °C 8.6 °C 1018.5 hPa NE 9.8 km/h 16.7 km/h 79 % 0 mm
21:22 12 °C 8.4 °C 1018.5 hPa North 10.1 km/h 16.7 km/h 79 % 0 mm
21:27 11.9 °C 8.6 °C 1018.8 hPa North 7.6 km/h 11.1 km/h 80 % 0 mm
21:32 11.8 °C 8.7 °C 1018.8 hPa NNW 8.4 km/h 11.3 km/h 81 % 0 mm
21:37 11.7 °C 8.6 °C 1018.8 hPa NNW 3.9 km/h 7.4 km/h 81 % 0 mm
21:42 11.7 °C 8.7 °C 1018.8 hPa WNW 6.8 km/h 13 km/h 82 % 0 mm
21:47 11.6 °C 8.7 °C 1018.8 hPa NNW 9.8 km/h 14.8 km/h 82 % 0 mm
21:52 11.6 °C 8.8 °C 1018.8 hPa NW 10.9 km/h 18.5 km/h 83 % 0 mm
21:57 11.4 °C 8.4 °C 1018.8 hPa NNW 6.8 km/h 11.1 km/h 82 % 0 mm
22:02 11.3 °C 8.4 °C 1018.8 hPa NNW 0.8 km/h 1.9 km/h 82 % 0 mm
22:07 11.2 °C 8.4 °C 1018.8 hPa NNW 3.7 km/h 9.3 km/h 83 % 0 mm
22:13 11.2 °C 8.4 °C 1018.8 hPa NNE 7.2 km/h 14.8 km/h 83 % 0 mm
22:18 11.1 °C 8.3 °C 1018.8 hPa North 7.4 km/h 17.7 km/h 83 % 0 mm
22:23 10.9 °C 7.9 °C 1010.7 hPa NNE 8.5 km/h 20.9 km/h 82 % 0 mm
22:28 10.8 °C 7.9 °C 1018.8 hPa NNE 10.5 km/h 14.8 km/h 82 % 0 mm
22:33 10.8 °C 7.7 °C 1018.8 hPa NNE 11.6 km/h 19.3 km/h 81 % 0 mm
22:38 10.7 °C 7.4 °C 1018.8 hPa North 9.8 km/h 20.4 km/h 80 % 0 mm
22:43 10.7 °C 7.3 °C 1019.2 hPa NNE 7.2 km/h 20.4 km/h 80 % 0 mm
22:48 10.6 °C 7.2 °C 1018.8 hPa NE 6.6 km/h 13 km/h 80 % 0 mm
22:53 10.5 °C 7.2 °C 1018.8 hPa NNE 9 km/h 16.7 km/h 80 % 0 mm
22:58 10.3 °C 7.1 °C 1018.8 hPa North 8.9 km/h 14.8 km/h 80 % 0 mm
23:04 10.3 °C 7 °C 1019.2 hPa North 10.5 km/h 16.7 km/h 80 % 0 mm
23:09 10.2 °C 7.1 °C 1019.2 hPa North 8.4 km/h 12.9 km/h 81 % 0 mm
23:14 10.2 °C 7.2 °C 1019.5 hPa North 10.3 km/h 19.3 km/h 82 % 0 mm
23:19 10.1 °C 6.8 °C 1019.5 hPa NNE 11.1 km/h 18.5 km/h 80 % 0 mm
23:24 10 °C 6.7 °C 1019.5 hPa North 8.5 km/h 18.5 km/h 80 % 0 mm
23:29 9.9 °C 6.4 °C 1019.5 hPa North 8.2 km/h 16.7 km/h 79 % 0 mm
23:34 9.8 °C 6.4 °C 1019.5 hPa NE 10.8 km/h 18.5 km/h 79 % 0 mm
23:39 9.8 °C 6.1 °C 1019.5 hPa North 7.7 km/h 13 km/h 78 % 0 mm
23:44 9.7 °C 6.1 °C 1019.5 hPa NNE 10.1 km/h 17.7 km/h 78 % 0 mm
23:49 9.7 °C 6 °C 1019.5 hPa NNE 10.6 km/h 24.1 km/h 78 % 0 mm
23:54 9.6 °C 5.9 °C 1019.9 hPa North 7.2 km/h 14.5 km/h 78 % 0 mm
23:59 9.6 °C 5.9 °C 1019.5 hPa North 8.9 km/h 16.1 km/h 78 % 0 mm
Crab Meadow Weather
Compliments of Weather Underground - 3 mb

Script developed by  Jim McMurry - jmcmurry@mwt.net Adapted for the template by  Wim van der Kuil - Leuven-Template.eu

Rain: The total amount of precipitation the earth receives each year as snow, hail, and rain is equivalent to 10 million gallons of water for every person in the United States.